New Boston, MI (48164)

4:58 PM EDT on May 28, 2015 (GMT -0400)
KMIBROWN4 | | Change Station
CLOSE
Current Station
Personal Weather Station
Location: Brownstown, MI
Elevation: 623 ft
Nearby Weather Stations

Elev 623 ft 42.16 °N, 83.30 °W | Updated 9 seconds ago

Clear
Clear
74.5 °F
Feels Like 77 °F
N
1.0
Wind Variable Wind from SE
Gusts 8.0 mph

Today
High -- | Low -- °F
--% Chance of Precip.
Yesterday
High -- | Low -- °F
Precip. -- in
6:02 AM 8:59 PM
Waxing Gibbous, 78% visible
Pressure 30.23 in
Visibility 10.0 miles
Clouds Few 4000 ft
Heat Index 77 °F
Dew Point 53 °F
Humidity 48%
Rainfall 0.00 in
Snow Depth Not available.
UV 8 out of 12
Pollen 6.90 out of 12
Air Quality Not available.
Flu Activity Sporadic
METAR KDTW 281953Z 16007KT 10SM FEW040 24/12 A3024 RMK AO2 SLP237 T02440117

More Conditions Fewer Conditions

Pressure 30.23 in
Visibility 10.0 miles
Clouds Few 4000 ft
Heat Index 77 °F
Dew Point 53 °F
Humidity 48%
Rainfall 0.00 in
Snow Depth Not available.
UV 8 out of 12
Pollen 6.90 out of 12
Air Quality Not available.
Flu Activity Sporadic
METAR KDTW 281953Z 16007KT 10SM FEW040 24/12 A3024 RMK AO2 SLP237 T02440117

More Conditions Fewer Conditions

10-Day Weather Forecast

Almanac

Astronomy

May. 28, 2015 Rise Set
Actual Time
Civil Twilight
Nautical Twilight
Astronomical Twilight
Moon
Length of Visible Light
Length of Day
Tomorrow will be .
, % of the Moon is Illuminated

Today's Extremes

State Highs State Lows

Community

WunderPhotos

Upload Photos

1,825,060 photos uploaded!

WunderBlogs® & News

Nearby

Air Quality

  Air Quality AQ Index Pollutant
Not available.

Snow Depth

Station Depth Elevation

Earthquake Activity

City Distance Mag. Time & Date
Minimum magnitude displayed is 2.5.

Coastal Water Temperatures

Place Temperature

Stations

Nearby Weather Stations

Station Location Temp. Windchill Dew Point Humidity Wind Precip. Elev Updated Type